Time;durP1;ratioP1;P1;durP2;ratioP2;P2;SDS_P1;SDS_P2;PMS_P1;PMS_P2;Temp;Humidity;BMP_temperature;BMP_pressure;BME280_temperature;BME280_humidity;BME280_pressure;Samples;Min_cycle;Max_cycle;Signal;HPM_P1;HPM_P2
2021/11/13 00:00:26;;;;;;;;;;;22.50;43.00;;;;;;1582105;75;767;-70
2021/11/13 00:02:28;;;;;;;;;;;22.50;43.00;;;;;;1582701;74;1132;-70
2021/11/13 00:04:29;;;;;;;;;;;22.50;43.00;;;;;;1582145;75;697;-70
2021/11/13 00:06:31;;;;;;;;;;;22.50;43.00;;;;;;1582012;75;721;-70
2021/11/13 00:08:33;;;;;;;;;;;22.50;43.00;;;;;;1581950;75;704;-70
2021/11/13 00:10:35;;;;;;;;;;;22.50;43.00;;;;;;1583078;74;1922;-70
2021/11/13 00:12:37;;;;;;;;;;;22.50;43.00;;;;;;1581751;74;1124;-70
2021/11/13 00:14:40;;;;;;;;;;;22.50;43.00;;;;;;1589718;74;676;-70
2021/11/13 00:16:42;;;;;;;;;;;22.50;43.00;;;;;;1610074;73;709;-70
2021/11/13 00:18:44;;;;;;;;;;;22.50;43.00;;;;;;1608494;74;698;-70
2021/11/13 00:20:48;;;;;;;;;;;22.40;42.90;;;;;;1609975;74;723;-70
2021/11/13 00:22:49;;;;;;;;;;;22.50;43.10;;;;;;1609718;72;1136;-70
2021/11/13 00:24:51;;;;;;;;;;;22.50;43.10;;;;;;1594019;74;696;-70
2021/11/13 00:26:53;;;;;;;;;;;22.50;43.10;;;;;;1582071;75;766;-70
2021/11/13 00:28:55;;;;;;;;;;;22.50;43.00;;;;;;1589735;74;736;-70
2021/11/13 00:30:57;;;;;;;;;;;22.50;43.10;;;;;;1609762;73;1922;-70
2021/11/13 00:32:59;;;;;;;;;;;22.50;43.10;;;;;;1607388;74;1108;-70
2021/11/13 00:35:01;;;;;;;;;;;22.50;43.10;;;;;;1582053;75;792;-71
2021/11/13 00:37:03;;;;;;;;;;;22.40;42.90;;;;;;1581897;75;749;-69
2021/11/13 00:39:05;;;;;;;;;;;22.50;43.10;;;;;;1582003;75;660;-70
2021/11/13 00:41:06;;;;;;;;;;;22.50;43.10;;;;;;1583090;74;775;-69
2021/11/13 00:43:08;;;;;;;;;;;22.50;43.10;;;;;;1581663;74;1100;-69
2021/11/13 00:45:10;;;;;;;;;;;22.50;43.20;;;;;;1582128;75;657;-70
2021/11/13 00:47:12;;;;;;;;;;;22.50;43.20;;;;;;1582175;75;726;-69
2021/11/13 00:49:14;;;;;;;;;;;22.50;43.30;;;;;;1586726;74;734;-70
2021/11/13 00:51:16;;;;;;;;;;;22.50;43.30;;;;;;1610079;72;1928;-70
2021/11/13 00:53:18;;;;;;;;;;;22.50;43.30;;;;;;1610023;73;763;-69
2021/11/13 00:55:20;;;;;;;;;;;22.50;43.40;;;;;;1608399;74;712;-70
2021/11/13 00:57:22;;;;;;;;;;;22.50;43.40;;;;;;1609998;74;922;-70
2021/11/13 00:59:24;;;;;;;;;;;22.50;43.40;;;;;;1610034;74;681;-68
2021/11/13 01:01:26;;;;;;;;;;;22.50;43.40;;;;;;1609576;72;1150;-68
2021/11/13 01:03:28;;;;;;;;;;;22.50;43.40;;;;;;1608936;74;726;-69
2021/11/13 01:05:31;;;;;;;;;;;22.50;43.40;;;;;;1610040;74;785;-69
2021/11/13 01:07:33;;;;;;;;;;;22.50;43.40;;;;;;1609653;74;701;-69
2021/11/13 01:09:35;;;;;;;;;;;22.50;43.40;;;;;;1610035;74;788;-70
2021/11/13 01:11:37;;;;;;;;;;;22.50;43.40;;;;;;1598399;74;1945;-70
2021/11/13 01:13:39;;;;;;;;;;;22.50;43.40;;;;;;1581698;75;724;-71
2021/11/13 01:15:41;;;;;;;;;;;22.50;43.40;;;;;;1604219;74;714;-71
2021/11/13 01:17:42;;;;;;;;;;;22.50;43.40;;;;;;1609935;74;731;-70
2021/11/13 01:19:45;;;;;;;;;;;22.50;43.40;;;;;;1608313;74;708;-69
2021/11/13 01:21:47;;;;;;;;;;;22.50;43.40;;;;;;1609916;72;1072;-69
2021/11/13 01:23:49;;;;;;;;;;;22.50;43.40;;;;;;1608769;74;722;-69
2021/11/13 01:25:51;;;;;;;;;;;22.50;43.40;;;;;;1609761;74;613;-70
2021/11/13 01:27:53;;;;;;;;;;;22.50;43.40;;;;;;1610108;74;694;-69
2021/11/13 01:29:55;;;;;;;;;;;22.50;43.40;;;;;;1609911;74;657;-69
2021/11/13 01:31:57;;;;;;;;;;;22.50;43.40;;;;;;1609571;74;1922;-69
2021/11/13 01:33:59;;;;;;;;;;;22.60;43.40;;;;;;1582684;74;785;-69
2021/11/13 01:36:01;;;;;;;;;;;22.40;43.30;;;;;;1581789;75;1056;-69
2021/11/13 01:38:03;;;;;;;;;;;22.50;43.40;;;;;;1581966;75;641;-69
2021/11/13 01:40:05;;;;;;;;;;;22.40;43.20;;;;;;1582051;75;678;-69
2021/11/13 01:42:07;;;;;;;;;;;22.50;43.40;;;;;;1591495;74;1130;-69
2021/11/13 01:44:09;;;;;;;;;;;22.40;43.30;;;;;;1609941;74;652;-69
2021/11/13 01:46:11;;;;;;;;;;;22.40;43.30;;;;;;1610170;74;728;-69
2021/11/13 01:48:13;;;;;;;;;;;22.50;43.40;;;;;;1609852;74;660;-69
2021/11/13 01:50:19;;;;;;;;;;;22.40;43.20;;;;;;1610111;74;753;-69
2021/11/13 01:52:21;;;;;;;;;;;22.50;43.40;;;;;;1583694;74;1938;-69
2021/11/13 01:54:23;;;;;;;;;;;22.40;43.30;;;;;;1590801;74;721;-69
2021/11/13 01:56:25;;;;;;;;;;;22.50;43.40;;;;;;1610049;74;778;-69
2021/11/13 01:58:27;;;;;;;;;;;22.40;43.20;;;;;;1609766;74;782;-69
2021/11/13 02:00:30;;;;;;;;;;;22.50;43.40;;;;;;1609653;73;778;-69
2021/11/13 02:02:32;;;;;;;;;;;22.50;43.40;;;;;;1599954;74;1146;-69
2021/11/13 02:04:34;;;;;;;;;;;22.50;43.40;;;;;;1582158;75;778;-70
2021/11/13 02:06:36;;;;;;;;;;;22.40;43.20;;;;;;1599293;74;697;-69
2021/11/13 02:08:39;;;;;;;;;;;22.50;43.40;;;;;;1610103;74;596;-69
2021/11/13 02:10:41;;;;;;;;;;;22.40;43.30;;;;;;1602844;74;739;-69
2021/11/13 02:12:42;;;;;;;;;;;22.40;43.30;;;;;;1581625;74;1945;-69
2021/11/13 02:14:44;;;;;;;;;;;22.40;43.30;;;;;;1589121;74;710;-70
2021/11/13 02:16:46;;;;;;;;;;;22.50;43.50;;;;;;1598417;74;714;-70
2021/11/13 02:18:48;;;;;;;;;;;22.40;43.40;;;;;;1598368;74;647;-70
2021/11/13 02:20:50;;;;;;;;;;;22.50;43.50;;;;;;1589120;74;724;-70
2021/11/13 02:22:52;;;;;;;;;;;22.40;43.40;;;;;;1593255;74;1131;-70
2021/11/13 02:24:54;;;;;;;;;;;22.40;43.40;;;;;;1593461;74;697;-69
2021/11/13 02:26:56;;;;;;;;;;;22.40;43.50;;;;;;1581999;74;784;-70
2021/11/13 02:28:59;;;;;;;;;;;22.40;43.50;;;;;;1589992;74;699;-69
2021/11/13 02:31:01;;;;;;;;;;;22.40;43.50;;;;;;1609984;74;707;-69
2021/11/13 02:33:03;;;;;;;;;;;22.40;43.50;;;;;;1608529;74;1949;-70
2021/11/13 02:35:05;;;;;;;;;;;22.40;43.60;;;;;;1609728;74;723;-70
2021/11/13 02:37:07;;;;;;;;;;;22.40;43.60;;;;;;1610066;74;723;-70
2021/11/13 02:39:10;;;;;;;;;;;22.40;43.60;;;;;;1609998;74;582;-69
2021/11/13 02:41:12;;;;;;;;;;;22.40;43.60;;;;;;1601479;74;771;-69
2021/11/13 02:43:14;;;;;;;;;;;22.40;43.60;;;;;;1581831;74;1188;-69
2021/11/13 02:45:16;;;;;;;;;;;22.40;43.60;;;;;;1582126;75;726;-69
2021/11/13 02:47:21;;;;;;;;;;;22.50;43.80;;;;;;1581733;75;702;-69
2021/11/13 02:49:23;;;;;;;;;;;22.40;43.60;;;;;;1607453;74;559;-69
2021/11/13 02:51:25;;;;;;;;;;;22.50;43.80;;;;;;1609982;72;1442;-70
2021/11/13 02:55:31;;;;;;;;;;;22.40;43.70;;;;;;1533865;75;1208;-58
2021/11/13 02:57:33;;;;;;;;;;;22.40;43.70;;;;;;1531377;77;636;-58
2021/11/13 02:59:35;;;;;;;;;;;22.40;43.70;;;;;;1531554;77;712;-58
2021/11/13 03:01:37;;;;;;;;;;;22.50;43.90;;;;;;1531569;76;657;-58
2021/11/13 03:03:39;;;;;;;;;;;22.50;43.90;;;;;;1531161;77;788;-57
2021/11/13 03:05:45;;;;;;;;;;;22.50;43.80;;;;;;1531586;76;1128;-58
2021/11/13 03:07:47;;;;;;;;;;;22.40;43.70;;;;;;1531767;76;758;-58
2021/11/13 03:09:49;;;;;;;;;;;22.50;43.80;;;;;;1531228;76;763;-57
2021/11/13 03:11:51;;;;;;;;;;;22.50;43.80;;;;;;1531514;76;1952;-58
2021/11/13 03:13:53;;;;;;;;;;;22.40;43.70;;;;;;1531622;76;743;-58
2021/11/13 03:15:55;;;;;;;;;;;22.50;43.90;;;;;;1531364;76;1197;-58
2021/11/13 03:17:57;;;;;;;;;;;22.40;43.70;;;;;;1532075;76;769;-58
2021/11/13 03:19:59;;;;;;;;;;;22.40;43.60;;;;;;1531746;77;721;-58
2021/11/13 03:22:01;;;;;;;;;;;22.40;43.70;;;;;;1527502;76;778;-56
2021/11/13 03:24:03;;;;;;;;;;;22.40;43.60;;;;;;1531798;76;722;-56
2021/11/13 03:26:06;;;;;;;;;;;22.40;43.70;;;;;;1531239;76;1193;-57
2021/11/13 03:28:10;;;;;;;;;;;22.40;43.70;;;;;;1529581;76;1798;-58
2021/11/13 03:30:11;;;;;;;;;;;22.40;43.80;;;;;;1529955;76;1433;-58
2021/11/13 03:32:13;;;;;;;;;;;22.40;43.80;;;;;;1530981;77;1954;-58
2021/11/13 03:34:15;;;;;;;;;;;22.40;43.90;;;;;;1528616;77;845;-58
2021/11/13 03:36:19;;;;;;;;;;;22.40;43.90;;;;;;1530623;77;1138;-58
2021/11/13 03:38:21;;;;;;;;;;;22.50;43.90;;;;;;1530653;76;1584;-58
2021/11/13 03:40:23;;;;;;;;;;;22.50;43.90;;;;;;1530198;77;807;-59
2021/11/13 03:42:27;;;;;;;;;;;22.40;43.70;;;;;;1526722;77;713;-58
2021/11/13 03:44:28;;;;;;;;;;;22.50;43.90;;;;;;1530062;76;1684;-58
2021/11/13 03:46:30;;;;;;;;;;;22.50;43.80;;;;;;1530695;76;1123;-58
2021/11/13 03:48:32;;;;;;;;;;;22.50;43.80;;;;;;1530814;77;709;-59
2021/11/13 03:50:34;;;;;;;;;;;22.60;43.70;;;;;;1531630;77;640;-59
2021/11/13 03:52:36;;;;;;;;;;;22.70;43.70;;;;;;1531101;77;1936;-59
2021/11/13 03:54:37;;;;;;;;;;;22.80;43.50;;;;;;1532007;76;789;-59
2021/11/13 03:56:39;;;;;;;;;;;22.80;43.30;;;;;;1531728;77;1139;-59
2021/11/13 03:58:41;;;;;;;;;;;22.90;43.20;;;;;;1531117;77;728;-58
2021/11/13 04:00:43;;;;;;;;;;;23.00;43.10;;;;;;1531774;77;789;-59
2021/11/13 04:02:46;;;;;;;;;;;23.00;42.90;;;;;;1531813;76;757;-59
2021/11/13 04:04:49;;;;;;;;;;;23.10;42.90;;;;;;1505966;79;467;-59
2021/11/13 04:06:51;;;;;;;;;;;23.10;42.80;;;;;;1506258;79;1105;-58
2021/11/13 04:08:52;;;;;;;;;;;23.20;42.60;;;;;;1506328;79;780;-58
2021/11/13 04:10:54;;;;;;;;;;;23.20;42.40;;;;;;1514809;76;740;-59
2021/11/13 04:12:56;;;;;;;;;;;23.20;42.30;;;;;;1531494;77;1922;-59
2021/11/13 04:14:58;;;;;;;;;;;23.20;42.20;;;;;;1531620;77;736;-59
2021/11/13 04:17:00;;;;;;;;;;;23.20;42.20;;;;;;1531097;76;1136;-58
2021/11/13 04:19:02;;;;;;;;;;;23.20;42.20;;;;;;1531630;77;670;-57
2021/11/13 04:21:04;;;;;;;;;;;23.20;42.30;;;;;;1531984;76;726;-58
2021/11/13 04:23:05;;;;;;;;;;;23.10;42.50;;;;;;1528149;76;740;-59
2021/11/13 04:25:08;;;;;;;;;;;23.10;42.60;;;;;;1527884;76;1138;-58
2021/11/13 04:27:10;;;;;;;;;;;23.00;42.70;;;;;;1531399;77;733;-58
2021/11/13 04:29:11;;;;;;;;;;;23.00;43.00;;;;;;1531296;77;662;-58
2021/11/13 04:31:14;;;;;;;;;;;22.90;43.10;;;;;;1531705;77;806;-58
2021/11/13 04:33:16;;;;;;;;;;;22.90;43.20;;;;;;1531563;76;1902;-57
2021/11/13 04:35:44;;;;;;;;;;;22.80;43.20;;;;;;1531375;77;1175;-58
2021/11/13 04:37:25;;;;;;;;;;;22.80;43.20;;;;;;1526268;77;1459;-58
2021/11/13 04:39:27;;;;;;;;;;;22.80;43.30;;;;;;1531020;77;754;-58
2021/11/13 04:41:29;;;;;;;;;;;22.90;43.40;;;;;;1531837;76;675;-58
2021/11/13 04:43:30;;;;;;;;;;;22.80;43.20;;;;;;1525591;78;796;-58
2021/11/13 04:45:32;;;;;;;;;;;22.80;43.30;;;;;;1531099;77;1157;-58
2021/11/13 04:47:34;;;;;;;;;;;22.80;43.30;;;;;;1531585;77;711;-58
2021/11/13 04:49:36;;;;;;;;;;;22.80;43.40;;;;;;1531475;76;708;-58
2021/11/13 04:51:38;;;;;;;;;;;22.90;43.50;;;;;;1531093;77;663;-59
2021/11/13 04:53:40;;;;;;;;;;;22.80;43.40;;;;;;1531296;76;1944;-58
2021/11/13 04:55:42;;;;;;;;;;;22.80;43.40;;;;;;1531262;76;1099;-57
2021/11/13 04:57:44;;;;;;;;;;;22.80;43.40;;;;;;1531049;77;725;-58
2021/11/13 04:59:45;;;;;;;;;;;22.70;43.50;;;;;;1531478;77;796;-58
2021/11/13 05:01:47;;;;;;;;;;;22.80;43.50;;;;;;1531484;77;709;-58
2021/11/13 05:03:49;;;;;;;;;;;22.80;43.40;;;;;;1530857;76;700;-57
2021/11/13 05:05:51;;;;;;;;;;;22.80;43.50;;;;;;1531566;77;1139;-58
2021/11/13 05:07:53;;;;;;;;;;;22.70;43.50;;;;;;1531522;77;728;-58
2021/11/13 05:09:55;;;;;;;;;;;22.80;43.50;;;;;;1531055;77;675;-58
2021/11/13 05:11:57;;;;;;;;;;;22.80;43.50;;;;;;1531332;76;707;-58
2021/11/13 05:13:58;;;;;;;;;;;22.80;43.50;;;;;;1531430;77;1955;-58
2021/11/13 05:16:00;;;;;;;;;;;22.80;43.50;;;;;;1530997;77;1176;-58
2021/11/13 05:18:02;;;;;;;;;;;22.80;43.50;;;;;;1531542;76;787;-58
2021/11/13 05:20:07;;;;;;;;;;;22.70;43.50;;;;;;1531995;76;691;-58
2021/11/13 05:22:08;;;;;;;;;;;22.80;43.40;;;;;;1530559;77;1603;-58
2021/11/13 05:24:10;;;;;;;;;;;22.80;43.50;;;;;;1531312;76;583;-58
2021/11/13 05:26:12;;;;;;;;;;;22.80;43.40;;;;;;1531520;77;1135;-58
2021/11/13 05:28:14;;;;;;;;;;;22.80;43.50;;;;;;1530930;77;725;-58
2021/11/13 05:30:16;;;;;;;;;;;22.80;43.40;;;;;;1531485;77;709;-58
2021/11/13 05:32:18;;;;;;;;;;;22.90;43.60;;;;;;1531126;76;781;-58
2021/11/13 05:34:20;;;;;;;;;;;22.90;43.50;;;;;;1530785;77;1944;-57
2021/11/13 05:36:22;;;;;;;;;;;22.90;43.50;;;;;;1531510;77;1147;-58
2021/11/13 05:38:24;;;;;;;;;;;22.90;43.40;;;;;;1531420;77;763;-58
2021/11/13 05:40:26;;;;;;;;;;;22.90;43.40;;;;;;1530926;77;822;-58
2021/11/13 05:42:28;;;;;;;;;;;22.90;43.30;;;;;;1531656;76;714;-59
2021/11/13 05:44:30;;;;;;;;;;;23.00;43.20;;;;;;1531390;77;776;-58
2021/11/13 05:46:32;;;;;;;;;;;23.00;43.10;;;;;;1530755;77;1143;-58
2021/11/13 05:48:34;;;;;;;;;;;23.00;43.20;;;;;;1531475;77;692;-58
2021/11/13 05:50:36;;;;;;;;;;;23.00;43.10;;;;;;1531636;76;738;-58
2021/11/13 05:52:38;;;;;;;;;;;23.00;43.10;;;;;;1530812;77;1936;-57
2021/11/13 05:54:40;;;;;;;;;;;23.00;43.10;;;;;;1531840;76;729;-57
2021/11/13 05:56:41;;;;;;;;;;;23.00;43.10;;;;;;1531478;77;1120;-57
2021/11/13 05:58:43;;;;;;;;;;;23.00;43.10;;;;;;1530761;77;658;-57
2021/11/13 06:00:46;;;;;;;;;;;22.90;43.20;;;;;;1531537;77;769;-58
2021/11/13 06:02:48;;;;;;;;;;;23.00;43.40;;;;;;1531092;76;754;-58
2021/11/13 06:04:50;;;;;;;;;;;22.90;43.40;;;;;;1530944;77;579;-58
2021/11/13 06:06:52;;;;;;;;;;;22.90;43.40;;;;;;1531510;77;1096;-58
2021/11/13 06:08:53;;;;;;;;;;;23.00;43.50;;;;;;1531481;77;688;-58
2021/11/13 06:10:55;;;;;;;;;;;22.90;43.60;;;;;;1530524;76;724;-59
2021/11/13 06:12:57;;;;;;;;;;;22.90;43.60;;;;;;1531124;77;1940;-58
2021/11/13 06:14:59;;;;;;;;;;;23.00;43.50;;;;;;1531302;77;669;-59
2021/11/13 06:17:02;;;;;;;;;;;23.10;43.10;;;;;;1531012;76;1127;-58
2021/11/13 06:19:04;;;;;;;;;;;23.30;42.80;;;;;;1531261;77;788;-58
2021/11/13 06:21:06;;;;;;;;;;;23.40;42.40;;;;;;1531368;76;708;-58
2021/11/13 06:23:08;;;;;;;;;;;23.50;42.30;;;;;;1531015;77;687;-59
2021/11/13 06:25:10;;;;;;;;;;;23.50;42.10;;;;;;1521806;76;1172;-59
2021/11/13 06:27:14;;;;;;;;;;;23.60;42.00;;;;;;1529497;76;659;-59
2021/11/13 06:29:16;;;;;;;;;;;23.60;41.80;;;;;;1529536;76;1797;-59
2021/11/13 06:31:18;;;;;;;;;;;23.60;41.70;;;;;;1525870;76;712;-59
2021/11/13 06:33:19;;;;;;;;;;;23.60;41.70;;;;;;1529065;76;1948;-59
2021/11/13 06:35:21;;;;;;;;;;;23.60;41.60;;;;;;1529759;76;1074;-59
2021/11/13 06:37:23;;;;;;;;;;;23.60;41.60;;;;;;1529956;76;784;-59
2021/11/13 06:39:25;;;;;;;;;;;23.50;41.60;;;;;;1529930;76;758;-59
2021/11/13 06:41:29;;;;;;;;;;;23.50;41.60;;;;;;1530172;76;707;-59
2021/11/13 06:43:30;;;;;;;;;;;23.50;41.70;;;;;;1529640;76;1731;-59
2021/11/13 06:45:33;;;;;;;;;;;23.50;41.70;;;;;;1526070;76;1124;-59
2021/11/13 06:47:35;;;;;;;;;;;23.40;41.60;;;;;;1530497;76;757;-59
2021/11/13 06:49:36;;;;;;;;;;;23.50;41.80;;;;;;1530020;76;753;-59
2021/11/13 06:51:38;;;;;;;;;;;23.40;41.60;;;;;;1530786;77;726;-58
2021/11/13 06:53:40;;;;;;;;;;;23.30;41.70;;;;;;1531232;76;1980;-58
2021/11/13 06:55:42;;;;;;;;;;;23.40;41.70;;;;;;1531286;76;1123;-57
2021/11/13 06:57:44;;;;;;;;;;;23.40;41.70;;;;;;1531410;77;747;-58
2021/11/13 06:59:46;;;;;;;;;;;23.40;41.80;;;;;;1531707;77;713;-59
2021/11/13 07:01:48;;;;;;;;;;;23.30;41.70;;;;;;1531751;77;796;-59
2021/11/13 07:03:50;;;;;;;;;;;23.30;41.80;;;;;;1531161;76;782;-59
2021/11/13 07:05:52;;;;;;;;;;;23.30;41.70;;;;;;1531798;76;1148;-59
2021/11/13 07:07:54;;;;;;;;;;;23.30;41.80;;;;;;1531840;77;974;-56
2021/11/13 07:09:56;;;;;;;;;;;23.30;41.70;;;;;;1531382;77;719;-58
2021/11/13 07:11:58;;;;;;;;;;;23.20;41.70;;;;;;1531792;77;723;-57
2021/11/13 07:14:00;;;;;;;;;;;23.30;41.80;;;;;;1531531;76;1920;-58
2021/11/13 07:16:03;;;;;;;;;;;23.20;41.70;;;;;;1530511;76;1163;-57
2021/11/13 07:18:05;;;;;;;;;;;23.20;41.70;;;;;;1531603;76;778;-58
2021/11/13 07:20:07;;;;;;;;;;;23.20;41.70;;;;;;1530825;76;713;-59
2021/11/13 07:22:09;;;;;;;;;;;23.20;41.70;;;;;;1530646;76;803;-59
2021/11/13 07:24:11;;;;;;;;;;;23.20;41.70;;;;;;1531434;76;822;-58
2021/11/13 07:26:14;;;;;;;;;;;23.10;41.70;;;;;;1531056;76;1167;-58
2021/11/13 07:28:18;;;;;;;;;;;23.20;41.70;;;;;;1530059;76;893;-58
2021/11/13 07:30:20;;;;;;;;;;;23.20;41.70;;;;;;1531076;76;1986;-59
2021/11/13 07:32:22;;;;;;;;;;;23.10;41.70;;;;;;1531107;76;841;-59
2021/11/13 07:34:24;;;;;;;;;;;23.20;41.70;;;;;;1531028;76;1929;-59
2021/11/13 07:36:26;;;;;;;;;;;23.20;41.70;;;;;;1531028;76;1147;-57
2021/11/13 07:38:28;;;;;;;;;;;23.20;41.60;;;;;;1530640;77;745;-59
2021/11/13 07:40:29;;;;;;;;;;;23.20;41.50;;;;;;1530274;77;779;-58
2021/11/13 07:42:31;;;;;;;;;;;23.30;41.50;;;;;;1531102;76;780;-59
2021/11/13 07:44:33;;;;;;;;;;;23.20;41.40;;;;;;1530277;76;733;-59
2021/11/13 07:46:36;;;;;;;;;;;23.30;41.40;;;;;;1530335;77;1138;-59
2021/11/13 07:48:38;;;;;;;;;;;23.40;41.30;;;;;;1530572;77;757;-59
2021/11/13 07:50:41;;;;;;;;;;;23.50;41.30;;;;;;1530382;76;753;-57
2021/11/13 07:52:42;;;;;;;;;;;23.50;41.20;;;;;;1531368;76;786;-59
2021/11/13 07:54:44;;;;;;;;;;;23.50;41.10;;;;;;1531211;76;1924;-58
2021/11/13 07:56:46;;;;;;;;;;;23.60;41.10;;;;;;1530579;76;1127;-59
2021/11/13 07:58:48;;;;;;;;;;;23.50;41.00;;;;;;1531423;76;675;-59
2021/11/13 08:00:50;;;;;;;;;;;23.60;40.90;;;;;;1530941;76;715;-59
2021/11/13 08:02:52;;;;;;;;;;;23.60;40.90;;;;;;1530380;76;702;-59
2021/11/13 08:04:54;;;;;;;;;;;23.60;40.80;;;;;;1530523;77;776;-59
2021/11/13 08:06:56;;;;;;;;;;;23.60;40.80;;;;;;1530625;77;1146;-59
2021/11/13 08:08:58;;;;;;;;;;;23.60;40.70;;;;;;1530528;76;692;-58
2021/11/13 08:11:01;;;;;;;;;;;23.60;40.70;;;;;;1530873;76;747;-59
2021/11/13 08:13:03;;;;;;;;;;;23.60;40.90;;;;;;1530963;76;675;-59
2021/11/13 08:15:06;;;;;;;;;;;23.50;41.00;;;;;;1530739;76;1944;-59
2021/11/13 08:17:08;;;;;;;;;;;23.50;41.00;;;;;;1531519;76;671;-58
2021/11/13 08:19:09;;;;;;;;;;;23.40;40.90;;;;;;1531401;77;768;-59
2021/11/13 08:21:12;;;;;;;;;;;23.50;41.10;;;;;;1531492;76;663;-59
2021/11/13 08:23:14;;;;;;;;;;;23.40;40.90;;;;;;1530271;77;672;-59
2021/11/13 08:25:16;;;;;;;;;;;23.50;41.10;;;;;;1530504;76;1187;-58
2021/11/13 08:27:18;;;;;;;;;;;23.40;40.90;;;;;;1530043;77;798;-59
2021/11/13 08:29:19;;;;;;;;;;;23.40;41.00;;;;;;1530354;77;791;-59
2021/11/13 08:31:21;;;;;;;;;;;23.40;41.00;;;;;;1529732;77;775;-58
2021/11/13 08:33:23;;;;;;;;;;;23.50;41.10;;;;;;1530568;76;737;-59
2021/11/13 08:35:25;;;;;;;;;;;23.40;41.00;;;;;;1531384;76;1948;-59
2021/11/13 08:37:27;;;;;;;;;;;23.40;41.00;;;;;;1531089;77;833;-58
2021/11/13 08:39:34;;;;;;;;;;;23.50;41.10;;;;;;1531846;76;668;-59
2021/11/13 08:41:33;;;;;;;;;;;23.40;41.00;;;;;;1545503;73;224687;-73
2021/11/13 08:43:35;;;;;;;;;;;23.40;41.10;;;;;;1547682;77;586;-73
2021/11/13 08:45:37;;;;;;;;;;;23.30;41.10;;;;;;1548197;77;635;-73
2021/11/13 08:47:39;;;;;;;;;;;23.50;41.20;;;;;;1548314;75;776;-74
2021/11/13 08:49:41;;;;;;;;;;;23.40;41.20;;;;;;1546193;75;1279;-71
2021/11/13 08:51:43;;;;;;;;;;;23.40;41.20;;;;;;1541140;77;731;-70
2021/11/13 08:53:53;;;;;;;;;;;23.30;41.50;;;;;;1522013;77;1975;-69
2021/11/13 08:55:49;;;;;;;;;;;23.30;41.70;;;;;;1520315;78;1640;-70
2021/11/13 08:57:51;;;;;;;;;;;23.30;41.90;;;;;;1521126;78;713;-69
2021/11/13 08:59:53;;;;;;;;;;;23.30;41.90;;;;;;1520994;77;1134;-72
2021/11/13 09:01:55;;;;;;;;;;;23.50;41.80;;;;;;1520863;78;718;-72
2021/11/13 09:03:57;;;;;;;;;;;23.50;41.80;;;;;;1541249;77;721;-73
2021/11/13 09:05:59;;;;;;;;;;;23.40;41.60;;;;;;1535823;77;810;-74
2021/11/13 09:08:01;;;;;;;;;;;23.40;41.80;;;;;;1518031;77;727;-75
2021/11/13 09:10:03;;;;;;;;;;;23.30;41.90;;;;;;1517916;77;1119;-73
2021/11/13 09:12:06;;;;;;;;;;;23.20;41.90;;;;;;1536780;75;813;-71
2021/11/13 09:14:09;;;;;;;;;;;23.20;41.90;;;;;;1546243;77;1961;-74
2021/11/13 09:16:11;;;;;;;;;;;23.20;41.90;;;;;;1546656;77;755;-73
2021/11/13 09:18:13;;;;;;;;;;;23.20;42.00;;;;;;1546557;77;779;-73
2021/11/13 09:20:15;;;;;;;;;;;23.10;42.10;;;;;;1546396;75;1149;-74
2021/11/13 09:22:16;;;;;;;;;;;23.20;42.10;;;;;;1546621;77;743;-74
2021/11/13 09:24:19;;;;;;;;;;;23.20;42.10;;;;;;1546527;75;728;-73
2021/11/13 09:26:22;;;;;;;;;;;23.10;42.10;;;;;;1546427;77;658;-75
2021/11/13 09:28:23;;;;;;;;;;;23.10;42.10;;;;;;1546625;77;740;-73
2021/11/13 09:30:27;;;;;;;;;;;23.10;42.10;;;;;;1546640;76;1115;-74
2021/11/13 09:32:29;;;;;;;;;;;23.10;42.00;;;;;;1546364;77;780;-72
2021/11/13 09:34:31;;;;;;;;;;;23.10;42.10;;;;;;1533314;75;1960;-74
2021/11/13 09:36:32;;;;;;;;;;;23.10;42.10;;;;;;1521045;78;722;-74
2021/11/13 09:38:35;;;;;;;;;;;23.10;42.10;;;;;;1520752;78;789;-73
2021/11/13 09:40:37;;;;;;;;;;;23.10;42.10;;;;;;1521044;77;1171;-73
2021/11/13 09:42:39;;;;;;;;;;;23.10;42.10;;;;;;1520920;78;706;-74
2021/11/13 09:44:41;;;;;;;;;;;23.10;42.10;;;;;;1544536;75;677;-74
2021/11/13 09:46:43;;;;;;;;;;;23.10;42.10;;;;;;1546841;77;656;-73
2021/11/13 09:48:45;;;;;;;;;;;23.10;42.10;;;;;;1546568;77;733;-73
2021/11/13 09:50:49;;;;;;;;;;;23.10;42.00;;;;;;1546265;75;1083;-73
2021/11/13 09:52:50;;;;;;;;;;;23.10;42.00;;;;;;1546303;77;998;-73
2021/11/13 09:54:52;;;;;;;;;;;23.10;42.00;;;;;;1545921;75;1947;-73
2021/11/13 09:56:54;;;;;;;;;;;23.10;42.10;;;;;;1546540;75;792;-74
2021/11/13 09:58:55;;;;;;;;;;;23.10;42.00;;;;;;1555916;75;765;-74
2021/11/13 10:00:57;;;;;;;;;;;23.10;42.00;;;;;;1543263;74;1140;-73
2021/11/13 10:02:59;;;;;;;;;;;23.10;41.90;;;;;;1542557;75;643;-74
2021/11/13 10:05:01;;;;;;;;;;;23.10;41.90;;;;;;1528586;75;733;-73
2021/11/13 10:07:03;;;;;;;;;;;23.10;42.00;;;;;;1539041;75;784;-74
2021/11/13 10:09:05;;;;;;;;;;;23.20;41.80;;;;;;1552717;75;723;-73
2021/11/13 10:11:08;;;;;;;;;;;23.20;41.80;;;;;;1551272;75;1130;-74
2021/11/13 10:13:29;;;;;;;;;;;23.10;41.80;;;;;;1544197;75;728;-74
2021/11/13 10:15:35;;;;;;;;;;;23.10;41.80;;;;;;1555384;75;1926;-74
2021/11/13 10:17:37;;;;;;;;;;;23.20;41.70;;;;;;1544870;75;1656;-74
2021/11/13 10:19:39;;;;;;;;;;;23.20;41.80;;;;;;1546786;75;1169;-74
2021/11/13 10:21:41;;;;;;;;;;;23.30;41.80;;;;;;1543385;75;812;-72
2021/11/13 10:23:45;;;;;;;;;;;23.20;41.70;;;;;;1533618;75;786;-74
2021/11/13 10:25:57;;;;;;;;;;;23.20;41.60;;;;;;1539332;75;723;-74
2021/11/13 10:28:07;;;;;;;;;;;23.20;41.50;;;;;;1537561;75;738;-74
2021/11/13 10:30:10;;;;;;;;;;;23.30;41.50;;;;;;1519883;75;1252;-72
2021/11/13 10:32:13;;;;;;;;;;;23.30;41.50;;;;;;1536889;75;989;-74
2021/11/13 10:34:19;;;;;;;;;;;23.30;41.50;;;;;;1538198;75;835;-72
2021/11/13 10:36:23;;;;;;;;;;;23.40;41.50;;;;;;1537470;75;734;-74
2021/11/13 10:38:25;;;;;;;;;;;23.30;41.40;;;;;;1543471;75;1776;-74
2021/11/13 10:40:30;;;;;;;;;;;23.40;41.30;;;;;;1544294;75;1160;-74
2021/11/13 10:42:31;;;;;;;;;;;23.40;41.30;;;;;;1543325;75;746;-73
2021/11/13 10:44:34;;;;;;;;;;;23.40;41.20;;;;;;1540425;75;673;-74
2021/11/13 10:46:36;;;;;;;;;;;23.40;41.20;;;;;;1551104;75;754;-74
2021/11/13 10:48:40;;;;;;;;;;;23.40;41.10;;;;;;1559481;75;714;-74
2021/11/13 10:50:41;;;;;;;;;;;23.50;41.30;;;;;;1546884;75;1160;-74
2021/11/13 10:52:45;;;;;;;;;;;23.50;41.30;;;;;;1571581;75;739;-74
2021/11/13 10:54:49;;;;;;;;;;;23.50;41.30;;;;;;1544817;75;1932;-74
2021/11/13 10:56:51;;;;;;;;;;;23.40;41.10;;;;;;1537502;75;1005;-74
2021/11/13 10:58:54;;;;;;;;;;;23.50;41.20;;;;;;1548524;75;749;-74
2021/11/13 11:00:58;;;;;;;;;;;23.50;41.10;;;;;;1539141;75;1047;-74
2021/11/13 11:03:04;;;;;;;;;;;23.50;41.10;;;;;;1550556;75;1125;-73
2021/11/13 11:05:07;;;;;;;;;;;23.50;41.00;;;;;;1553945;75;789;-72
2021/11/13 11:07:24;;;;;;;;;;;23.60;41.00;;;;;;1543650;75;1883;-73
2021/11/13 11:09:27;;;;;;;;;;;23.50;41.00;;;;;;1543230;75;984;-74
2021/11/13 11:11:36;;;;;;;;;;;23.60;40.90;;;;;;1535861;75;1119;-74
2021/11/13 11:13:50;;;;;;;;;;;23.50;40.90;;;;;;1548806;75;691;-73
2021/11/13 11:15:52;;;;;;;;;;;23.50;40.90;;;;;;1538531;75;1932;-74
2021/11/13 11:17:56;;;;;;;;;;;23.50;41.00;;;;;;1545115;75;636;-74
2021/11/13 11:20:05;;;;;;;;;;;23.50;41.00;;;;;;1541649;75;1189;-74
2021/11/13 11:22:09;;;;;;;;;;;23.50;40.90;;;;;;1531548;75;1191;-74
2021/11/13 11:24:15;;;;;;;;;;;23.50;40.90;;;;;;1543350;75;1662;-74
2021/11/13 11:26:18;;;;;;;;;;;23.60;40.80;;;;;;1545002;75;683;-73
2021/11/13 11:28:20;;;;;;;;;;;23.60;40.80;;;;;;1559976;75;805;-74
2021/11/13 11:30:23;;;;;;;;;;;23.60;40.80;;;;;;1555252;75;1181;-74
2021/11/13 11:32:26;;;;;;;;;;;23.60;40.70;;;;;;1552706;75;790;-74
2021/11/13 11:34:28;;;;;;;;;;;23.60;40.70;;;;;;1547853;75;758;-74
2021/11/13 11:36:32;;;;;;;;;;;23.60;40.70;;;;;;1544548;75;1916;-74
2021/11/13 11:38:36;;;;;;;;;;;23.60;40.70;;;;;;1542876;75;1452;-73
2021/11/13 11:40:38;;;;;;;;;;;23.60;40.70;;;;;;1544320;75;1619;-74
2021/11/13 11:42:40;;;;;;;;;;;23.60;40.70;;;;;;1535669;75;798;-74
2021/11/13 11:44:43;;;;;;;;;;;23.60;40.70;;;;;;1559458;75;728;-73
2021/11/13 11:46:45;;;;;;;;;;;23.60;40.60;;;;;;1558025;75;767;-74
2021/11/13 11:48:51;;;;;;;;;;;23.70;40.70;;;;;;1560988;75;756;-64
2021/11/13 11:50:51;;;;;;;;;;;23.60;40.60;;;;;;1560339;75;1639;-62
2021/11/13 11:52:54;;;;;;;;;;;23.50;40.50;;;;;;1561539;75;785;-66
2021/11/13 11:54:56;;;;;;;;;;;23.40;40.30;;;;;;1545760;75;1909;-64
2021/11/13 11:56:58;;;;;;;;;;;23.30;40.60;;;;;;1561155;75;775;-63
2021/11/13 11:59:01;;;;;;;;;;;23.30;40.70;;;;;;1559401;75;761;-64
2021/11/13 12:01:03;;;;;;;;;;;23.40;40.80;;;;;;1559802;74;1169;-66
2021/11/13 12:03:05;;;;;;;;;;;23.30;40.80;;;;;;1547425;75;959;-70
2021/11/13 12:05:12;;;;;;;;;;;23.40;40.80;;;;;;1542050;75;729;-65
2021/11/13 12:07:32;;;;;;;;;;;23.40;41.00;;;;;;1543158;75;1697;-65
2021/11/13 12:09:38;;;;;;;;;;;23.30;41.00;;;;;;1538426;75;793;-67
2021/11/13 12:11:37;;;;;;;;;;;23.30;41.10;;;;;;1540357;75;1312;-68